Tiempo atmosférico en la estación meteorológica de Agüimes, Las Palmas (306 m.)



Fecha
DESCASC
Temp. máxima en grados centígrados (hora)
DESCASC
Temp. mínima en grados centígrados (hora)
DESCASC
Temp. media en grados centígrados
DESCASC
Racha de viento máxima en m/sg (hora)
DESCASC
Velocidad máxima media en intervalos de 10 minutos(hora)
DESCASC
Precipitaciones diarias en mm
DESCASC
Precipitaciones de 00:00 a 06:00 en mm
DESCASC
Precipitaciones de 06:00 a 12:00 en mm
DESCASC
Precipitaciones de 12:00 a 18:00 en mm
DESCASC
Precipitaciones de 18:00 a 24:00 en mm
DESCASC
23-05-2018 19.8 (10:50) 15.3 (02:50) 17.5 10 (19:30) 6.67 (19:40) 0 0 0 0 0
22-05-2018 21.5 (11:30) 12.7 (06:00) 17.1 8.06 (10:50) 5.28 (11:40) 0 0 0 0 0
21-05-2018 23 (12:40) 15.1 (23:59) 19.1 12.22 (00:10) 8.61 (13:00) 0 0 0 0 0
20-05-2018 22.8 (16:50) 15.2 (00:00) 19 16.67 (14:40) 10.28 (14:40) 0 0 0 0 0
19-05-2018 22.7 (14:20) 14.8 (00:00) 18.8 14.72 (11:20) 9.44 (13:10) 0 0 0 0 0
18-05-2018 22.7 (14:50) 13.2 (00:00) 18 15 (18:00) 10 (19:20) 0 0 0 0 0
17-05-2018 23.2 (13:00) 15 (00:00) 19.1 13.33 (02:40) 8.33 (03:30) 0 0 0 0 0
16-05-2018 22.5 (16:20) 14.4 (00:00) 18.4 16.39 (13:10) 10.83 (13:10) 0 0 0 0 0
15-05-2018 23 (17:20) 15.1 (00:00) 19.1 18.33 (01:40) 12.22 (01:40) 0 0 0 0 0
14-05-2018 23.3 (14:50) 14 (00:00) 18.6 18.33 (03:50) 12.78 (03:50) 0 0 0 0 0
13-05-2018 21.6 (14:30) 14.3 (00:00) 18 21.39 (07:10) 14.17 (00:20) 0 0 0 0 0
12-05-2018 22.3 (17:00) 15.6 (00:00) 18.9 23.06 (02:10) 15.83 (02:30) 0 0 0 0 0
11-05-2018 21.9 (15:00) 14.2 (07:20) 18 18.89 (10:50) 12.78 (10:50) 0 0 0 0 0
10-05-2018 22.5 (14:30) 15.1 (00:00) 18.8 17.78 (17:00) 12.5 (17:00) 0 0 0 0 0
09-05-2018 22.8 (14:30) 14.8 (00:00) 18.8 17.22 (18:20) 11.94 (15:30) 0 0 0 0 0
08-05-2018 22.3 (15:30) 15.8 (00:00) 19 16.11 (14:40) 10.83 (14:40) 0 0 0 0 0
07-05-2018 19.5 (15:40) 14.2 (00:00) 16.8 10.83 (19:40) 6.67 (19:50) 0 0 0 0 0
06-05-2018 18.8 (13:10) 13 (00:00) 15.9 8.61 (10:40) 3.61 (10:40) 0.6 0 0 0 0.6
05-05-2018 19.1 (14:20) 14.5 (00:00) 16.8 11.11 (12:10) 7.5 (11:50) 0 0 0 0 0
04-05-2018 22.2 (15:10) 14.9 (00:00) 18.6 15.83 (15:30) 10.83 (14:30) 0 0 0 0 0
03-05-2018 23.4 (12:50) 14 (00:00) 18.7 13.89 (15:50) 9.72 (16:00) 0 0 0 0 0
02-05-2018 22.2 (15:00) 12.6 (00:00) 17.4 12.5 (12:10) 7.5 (08:30) 0 0 0 0 0
01-05-2018 21.7 (14:20) 13.8 (07:20) 17.8 14.44 (13:50) 9.72 (13:50) 0 0 0 0 0
30-04-2018 20.5 (16:30) 13.3 (00:00) 16.9 15 (14:30) 10 (13:10) 0 0 0 0 0
29-04-2018 21 (14:40) 13.5 (00:00) 17.3 16.11 (13:40) 10.56 (15:40) 0 0 0 0 0
28-04-2018 24.5 (14:30) 14.8 (00:00) 19.7 17.22 (19:00) 11.39 (19:10) 0 0 0 0 0
27-04-2018 26.1 (16:30) 13 (00:00) 19.6 13.89 (14:10) 10 (15:20) 0 0 0 0 0
26-04-2018 25.4 (14:10) 13.4 (00:00) 19.4 15.83 (16:20) 8.89 (15:40) 0 0 0 0 0
25-04-2018 27.1 (15:40) 13.6 (00:00) 20.4 15 (14:10) 8.89 (11:20) 0 0 0 0 0
24-04-2018 22.7 (15:40) 15.4 (00:00) 19.1 14.72 (15:50) 9.44 (16:00) 0 0 0 0 0

Gráficas

Temp. máximas Temp. mínimas Temp. medias Precipitaciones Rachas de viento máximas Velocidades máximas media en intervalos de 10 minutos

Datos horarios

Fecha y hora oficial Temperatura (ºC) Velocidad del viento (km/h) Dirección del viento Racha (km/h) Dirección de racha Precipitación (mm) Presión (hPa) Tendencia (hPa) Humedad (%)
2018-05-23 23:00:00 16.5 12 Norte 21 Noroeste 0 -- -- 67
2018-05-23 22:00:00 17 5 Noroeste 32 Noroeste 0 -- -- 65
2018-05-23 21:00:00 16.5 21 Norte 36 Norte 0 -- -- 65
2018-05-23 20:00:00 16.7 21 Norte 36 Norte 0 -- -- 67
2018-05-23 19:00:00 17.8 18 Norte 31 Norte 0 -- -- 68
2018-05-23 18:00:00 18.4 18 Norte 32 Norte 0 -- -- 66
2018-05-23 17:00:00 18.9 18 Norte 32 Nordeste 0 -- -- 62
2018-05-23 16:00:00 18.8 22 Nordeste 33 Nordeste 0 -- -- 65
2018-05-23 15:00:00 19.4 21 Nordeste 32 Nordeste 0 -- -- 62
2018-05-23 14:00:00 18.7 17 Nordeste 28 Norte 0 -- -- 64
2018-05-23 13:00:00 17.9 18 Norte 30 Norte 0 -- -- 68
2018-05-23 12:00:00 18.5 19 Nordeste 30 Nordeste 0 -- -- 68
2018-05-23 11:00:00 19.7 15 Nordeste 24 Nordeste 0 -- -- 60
2018-05-23 10:00:00 18.4 13 Nordeste 22 Nordeste 0 -- -- 61
2018-05-23 09:00:00 17.2 5 Oeste 15 Norte 0 -- -- 76
2018-05-23 08:00:00 16.5 5 Norte 11 Norte 0 -- -- 79
2018-05-23 07:00:00 16.2 8 Norte 13 Noroeste 0 -- -- 76
2018-05-23 06:00:00 15.9 6 Nordeste 12 Norte 0 -- -- 81
2018-05-23 05:00:00 15.7 0 Calma 5 Oeste 0 -- -- 90
2018-05-23 04:00:00 15.3 2 Sudoeste 4 Sudoeste 0 -- -- 90
2018-05-23 03:00:00 15.4 2 Oeste 5 Noroeste 0 -- -- 89
2018-05-23 02:00:00 15.4 0 Calma 6 Oeste 0 -- -- 89
2018-05-23 01:00:00 15.7 4 Sudoeste 6 Sur 0 -- -- 86
2018-05-23 00:00:00 15.9 4 Oeste 7 Oeste 0 -- -- 86
2018-05-22 23:00:00 16.6 3 Sudeste 12 Nordeste 0 -- -- 86
2018-05-22 22:00:00 17.4 4 Nordeste 8 Nordeste 0 -- -- 76
2018-05-22 21:00:00 17.8 2 Sudeste 9 Nordeste 0 -- -- 73
2018-05-22 20:00:00 18.4 6 Este 13 Sur 0 -- -- 68
2018-05-22 19:00:00 19 6 Sudeste 16 Sudeste 0 -- -- 67
2018-05-22 18:00:00 20.1 6 Sudeste 17 Sur 0 -- -- 63
2018-05-22 17:00:00 19.7 6 Sudeste 19 Sur 0 -- -- 64
2018-05-22 16:00:00 19.7 12 Sur 22 Sudeste 0 -- -- 64
2018-05-22 15:00:00 20.6 9 Sudeste 21 Sur 0 -- -- 63
2018-05-22 14:00:00 19.9 11 Sur 23 Sudeste 0 -- -- 65
2018-05-22 13:00:00 20.4 10 Sudeste 23 Sudeste 0 -- -- 64
2018-05-22 12:00:00 20.2 16 Sur 28 Sur 0 -- -- 63
2018-05-22 11:00:00 20.8 14 Sur 29 Sudeste 0 -- -- 59
2018-05-22 10:00:00 19 7 Sudoeste 15 Sur 0 -- -- 59
2018-05-22 09:00:00 17.3 7 Sudeste 13 Sur 0 -- -- 67
2018-05-22 08:00:00 14.3 3 Noroeste 8 Noroeste 0 -- -- 77
2018-05-22 07:00:00 12.9 6 Noroeste 10 Oeste 0 -- -- 77
2018-05-22 06:00:00 12.7 5 Noroeste 6 Noroeste 0 -- -- 77
2018-05-22 05:00:00 13.4 3 Noroeste 6 Noroeste 0 -- -- 76
2018-05-22 04:00:00 13.5 5 Noroeste 9 Noroeste 0 -- -- 75
2018-05-22 03:00:00 14.1 4 Oeste 9 Norte 0 -- -- 78
2018-05-22 02:00:00 14.3 7 Noroeste 9 Norte 0 -- -- 74
2018-05-22 01:00:00 14.8 2 Noroeste 8 Nordeste 0 -- -- 73
2018-05-22 00:00:00 15.1 5 Nordeste 18 Norte 0 -- -- 67
2018-05-21 23:00:00 16.4 13 Norte 23 Noroeste 0 -- -- 60
2018-05-21 22:00:00 16.9 12 Norte 22 Norte 0 -- -- 61
2018-05-21 21:00:00 18.2 10 Sur 33 Norte 0 -- -- 58
2018-05-21 20:00:00 19.2 24 Norte 39 Norte 0 -- -- 55
2018-05-21 19:00:00 21.2 23 Norte 43 Norte 0 -- -- 47
2018-05-21 18:00:00 21.7 30 Norte 44 Norte 0 -- -- 46
2018-05-21 17:00:00 20.7 26 Norte 42 Nordeste 0 -- -- 52
2018-05-21 16:00:00 21.4 17 Sur 37 Sur 0 -- -- 50
2018-05-21 15:00:00 22.8 17 Sur 39 Sur 0 -- -- 47
2018-05-21 14:00:00 22.3 20 Sudoeste 39 Sur 0 -- -- 48
2018-05-21 13:00:00 22.5 31 Sur 43 Sur 0 -- -- 51
2018-05-21 12:00:00 20.7 13 Noroeste 37 Norte 0 -- -- 50
2018-05-21 11:00:00 20.4 22 Norte 38 Norte 0 -- -- 50
2018-05-21 10:00:00 17.8 24 Norte 37 Nordeste 0 -- -- 58
2018-05-21 09:00:00 16.2 20 Norte 30 Norte 0 -- -- 69
2018-05-21 08:00:00 16.3 10 Norte 32 Norte 0 -- -- 62
2018-05-21 07:00:00 16.1 18 Norte 31 Noroeste 0 -- -- 63
2018-05-21 06:00:00 16 13 Norte 31 Norte 0 -- -- 66
2018-05-21 05:00:00 15.9 20 Norte 31 Nordeste 0 -- -- 69
2018-05-21 04:00:00 15.8 12 Norte 23 Norte 0 -- -- 69
2018-05-21 03:00:00 16.1 15 Norte 29 Norte 0 -- -- 63
2018-05-21 02:00:00 15.8 23 Norte 39 Norte 0 -- -- 58
2018-05-21 01:00:00 15.6 21 Norte 44 Norte 0 -- -- 63
2018-05-21 00:00:00 16 28 Norte 41 Norte 0 -- -- 59
2018-05-20 23:00:00 16.4 21 Norte 39 Norte 0 -- -- 61
2018-05-20 22:00:00 16.5 26 Norte 41 Norte 0 -- -- 60
2018-05-20 21:00:00 17.1 5 Nordeste 16 Sur 0 -- -- 62
2018-05-20 20:00:00 17.9 14 Sur 21 Sur 0 -- -- 65
2018-05-20 19:00:00 19.2 14 Sur 25 Sur 0 -- -- 59
2018-05-20 18:00:00 21.3 15 Sudeste 33 Sur 0 -- -- 51
2018-05-20 17:00:00 22.5 22 Sur 54 Norte 0 -- -- 47
2018-05-20 16:00:00 21.2 36 Norte 52 Norte 0 -- -- 51
2018-05-20 15:00:00 21.3 32 Norte 60 Norte 0 -- -- 53
2018-05-20 14:00:00 22.1 25 Norte 51 Norte 0 -- -- 49
2018-05-20 13:00:00 21.7 30 Norte 48 Norte 0 -- -- 45
2018-05-20 12:00:00 20.7 28 Norte 46 Norte 0 -- -- 46
2018-05-20 11:00:00 19.8 27 Norte 44 Norte 0 -- -- 48
2018-05-20 10:00:00 17.9 22 Norte 36 Norte 0 -- -- 51
2018-05-20 09:00:00 16.3 19 Norte 28 Nordeste 0 -- -- 62
2018-05-20 08:00:00 15.5 18 Norte 31 Norte 0 -- -- 58
2018-05-20 07:00:00 15.3 19 Norte 35 Noroeste 0 -- -- 58
2018-05-20 06:00:00 15.2 14 Noroeste 40 Noroeste 0 -- -- 58
2018-05-20 05:00:00 15.5 15 Norte 41 Noroeste 0 -- -- 61
2018-05-20 04:00:00 15.4 28 Norte 45 Norte 0 -- -- 57
2018-05-20 03:00:00 15.9 22 Norte 40 Norte 0 -- -- 59
2018-05-20 02:00:00 15.8 20 Norte 44 Norte 0 -- -- 60
2018-05-20 01:00:00 15.5 29 Norte 46 Noroeste 0 -- -- 59
2018-05-20 00:00:00 15.8 26 Norte 46 Norte 0 -- -- 59
2018-05-19 23:00:00 16.1 30 Norte 51 Norte 0 -- -- 63
2018-05-19 22:00:00 16.1 30 Norte 50 Norte 0 -- -- 61
2018-05-19 21:00:00 16.8 28 Norte 42 Norte 0 -- -- 61
2018-05-19 20:00:00 17.8 28 Norte 43 Norte 0 -- -- 59
2018-05-19 19:00:00 19.4 28 Norte 45 Norte 0 -- -- 55
2018-05-19 18:00:00 20.6 33 Norte 50 Nordeste 0 -- -- 53
2018-05-19 17:00:00 20.9 30 Norte 46 Norte 0 -- -- 55
2018-05-19 16:00:00 19.6 27 Norte 48 Noroeste 0 -- -- 58
2018-05-19 15:00:00 22.1 30 Norte 45 Norte 0 -- -- 52
2018-05-19 14:00:00 22.4 29 Norte 47 Norte 0 -- -- 48
2018-05-19 13:00:00 21.3 33 Norte 48 Norte 0 -- -- 51
2018-05-19 12:00:00 20.8 30 Norte 53 Norte 0 -- -- 56
2018-05-19 11:00:00 19.5 31 Norte 47 Norte 0 -- -- 58
2018-05-19 10:00:00 18.3 21 Norte 48 Norte 0 -- -- 60
2018-05-19 09:00:00 16.3 24 Norte 39 Norte 0 -- -- 71
2018-05-19 08:00:00 15.8 19 Norte 41 Norte 0 -- -- 70
2018-05-19 07:00:00 15.5 20 Norte 40 Norte 0 -- -- 71
2018-05-19 06:00:00 15.6 17 Norte 34 Norte 0 -- -- 72
2018-05-19 05:00:00 15.4 13 Norte 36 Norte 0 -- -- 71
2018-05-19 04:00:00 15.5 19 Norte 32 Norte 0 -- -- 72
2018-05-19 03:00:00 15.5 16 Norte 32 Norte 0 -- -- 70
2018-05-19 02:00:00 15.1 15 Norte 24 Norte 0 -- -- 73
2018-05-19 01:00:00 14.9 6 Norte 15 Nordeste 0 -- -- 74
2018-05-19 00:00:00 15.3 0 Calma 14 Sudoeste 0 -- -- 72
2018-05-18 23:00:00 16.1 12 Norte 32 Nordeste 0 -- -- 68
2018-05-18 22:00:00 15.9 23 Norte 37 Norte 0 -- -- 71
2018-05-18 21:00:00 16.6 24 Norte 42 Norte 0 -- -- 68
2018-05-18 20:00:00 17.8 30 Norte 50 Norte 0 -- -- 64
2018-05-18 19:00:00 19.3 33 Norte 49 Norte 0 -- -- 58
2018-05-18 18:00:00 20.2 35 Norte 54 Norte 0 -- -- 56
2018-05-18 17:00:00 21.9 31 Norte 46 Norte 0 -- -- 48
2018-05-18 16:00:00 21.9 28 Norte 47 Nordeste 0 -- -- 47
2018-05-18 15:00:00 22.2 27 Nordeste 49 Norte 0 -- -- 44
2018-05-18 14:00:00 22 30 Norte 49 Norte 0 -- -- 47
2018-05-18 13:00:00 21.7 29 Norte 48 Norte 0 -- -- 48
2018-05-18 12:00:00 20.3 27 Norte 49 Norte 0 -- -- 52
2018-05-18 11:00:00 20.4 21 Norte 41 Norte 0 -- -- 55
2018-05-18 10:00:00 18.5 22 Norte 44 Norte 0 -- -- 58
2018-05-18 09:00:00 16.8 20 Norte 36 Norte 0 -- -- 63
2018-05-18 08:00:00 15.1 14 Norte 24 Noroeste 0 -- -- 69
2018-05-18 07:00:00 13.4 4 Noroeste 16 Noroeste 0 -- -- 79
2018-05-18 06:00:00 13.9 12 Norte 23 Norte 0 -- -- 73
2018-05-18 05:00:00 13.4 7 Norte 10 Norte 0 -- -- 78
2018-05-18 04:00:00 13.7 3 Norte 7 Oeste 0 -- -- 77
2018-05-18 03:00:00 14.5 5 Noroeste 22 Norte 0 -- -- 72
2018-05-18 02:00:00 15.5 15 Norte 29 Norte 0 -- -- 69
2018-05-18 01:00:00 15.9 4 Noroeste 31 Norte 0 -- -- 67
2018-05-18 00:00:00 16.1 16 Norte 43 Norte 0 -- -- 62
2018-05-17 23:00:00 16.1 26 Norte 42 Norte 0 -- -- 64
2018-05-17 22:00:00 16.8 15 Norte 26 Norte 0 -- -- 63
2018-05-17 21:00:00 17.4 5 Nordeste 18 Sur 0 -- -- 67
2018-05-17 20:00:00 18.2 13 Sur 19 Sur 0 -- -- 70
2018-05-17 19:00:00 19.3 13 Sur 24 Sur 0 -- -- 65
2018-05-17 18:00:00 20 17 Sur 34 Norte 0 -- -- 62
2018-05-17 17:00:00 21.2 12 Norte 30 Norte 0 -- -- 57
2018-05-17 16:00:00 21 17 Sur 39 Sur 0 -- -- 59
2018-05-17 15:00:00 22.9 27 Sur 36 Sudeste 0 -- -- 53
2018-05-17 14:00:00 21.1 21 Sur 39 Sudoeste 0 -- -- 58
2018-05-17 13:00:00 23.2 24 Sur 39 Sur 0 -- -- 49
2018-05-17 12:00:00 22 9 Sudoeste 28 Norte 0 -- -- 50
2018-05-17 11:00:00 20.7 13 Noroeste 36 Noroeste 0 -- -- 54
2018-05-17 10:00:00 19.8 10 Sur 15 Sudoeste 0 -- -- 56
2018-05-17 09:00:00 18.6 6 Este 37 Norte 0 -- -- 55
2018-05-17 08:00:00 16.1 20 Norte 34 Norte 0 -- -- 59
2018-05-17 07:00:00 15 21 Norte 39 Norte 0 -- -- 66
2018-05-17 06:00:00 15 23 Norte 39 Norte 0 -- -- 72
2018-05-17 05:00:00 16 12 Norte 36 Norte 0 -- -- 66
2018-05-17 04:00:00 15.9 27 Norte 48 Norte 0 -- -- 62
2018-05-17 03:00:00 15.8 23 Norte 48 Norte 0 -- -- 62
2018-05-17 02:00:00 15.6 27 Norte 40 Norte 0 -- -- 68
2018-05-17 01:00:00 15.6 27 Norte 39 Norte 0 -- -- 71
2018-05-17 00:00:00 16.6 20 Norte 35 Norte 0 -- -- 63
2018-05-16 23:00:00 16.3 23 Norte 43 Norte 0 -- -- 66
2018-05-16 22:00:00 16.6 24 Norte 42 Noroeste 0 -- -- 64
2018-05-16 21:00:00 17.4 26 Norte 49 Norte 0 -- -- 59
2018-05-16 20:00:00 17.8 30 Norte 49 Norte 0 -- -- 57
2018-05-16 19:00:00 18.8 27 Norte 54 Norte 0 -- -- 55
2018-05-16 18:00:00 19.9 30 Norte 45 Norte 0 -- -- 52
2018-05-16 17:00:00 21.2 32 Norte 54 Norte 0 -- -- 50
2018-05-16 16:00:00 21.9 21 Norte 46 Norte 0 -- -- 48
2018-05-16 15:00:00 20.6 22 Norte 50 Norte 0 -- -- 55
2018-05-16 14:00:00 21 31 Norte 59 Norte 0 -- -- 51
2018-05-16 13:00:00 21.8 37 Norte 56 Norte 0 -- -- 48
2018-05-16 12:00:00 21.1 33 Norte 55 Norte 0 -- -- 50
2018-05-16 11:00:00 19.1 33 Norte 50 Norte 0 -- -- 62
2018-05-16 10:00:00 17.8 28 Norte 44 Norte 0 -- -- 67
2018-05-16 09:00:00 16.7 26 Norte 41 Norte 0 -- -- 70
2018-05-16 08:00:00 17.1 30 Norte 44 Norte 0 -- -- 61
2018-05-16 07:00:00 16.5 24 Norte 41 Norte 0 -- -- 63
2018-05-16 06:00:00 14.8 4 Norte 30 Nordeste 0 -- -- 78
2018-05-16 05:00:00 15.5 12 Noroeste 37 Norte 0 -- -- 76
2018-05-16 04:00:00 14.4 7 Norte 31 Norte 0 -- -- 80
2018-05-16 03:00:00 14.8 5 Norte 12 Nordeste 0 -- -- 78
2018-05-16 02:00:00 14.6 4 Norte 10 Norte 0 -- -- 79
2018-05-16 01:00:00 15.9 4 Oeste 40 Norte 0 -- -- 72
2018-05-16 00:00:00 16.2 12 Norte 30 Norte 0 -- -- 69
2018-05-15 23:00:00 16.4 9 Noroeste 23 Norte 0 -- -- 72
2018-05-15 22:00:00 17 3 Sudoeste 31 Norte 0 -- -- 68
2018-05-15 21:00:00 17.6 22 Norte 44 Norte 0 -- -- 62
2018-05-15 20:00:00 18.3 30 Norte 46 Norte 0 -- -- 58
2018-05-15 19:00:00 20.5 29 Norte 47 Norte 0 -- -- 54
2018-05-15 18:00:00 22 33 Norte 58 Norte 0 -- -- 52
2018-05-15 17:00:00 22.7 35 Norte 58 Norte 0 -- -- 51
2018-05-15 16:00:00 22.8 40 Norte 58 Nordeste 0 -- -- 50
2018-05-15 15:00:00 22.6 39 Norte 59 Norte 0 -- -- 54
2018-05-15 14:00:00 22.7 38 Norte 58 Norte 0 -- -- 52
2018-05-15 13:00:00 21.9 41 Norte 62 Norte 0 -- -- 55
2018-05-15 12:00:00 20.9 42 Norte 64 Norte 0 -- -- 56
2018-05-15 11:00:00 20.2 37 Norte 59 Norte 0 -- -- 57
2018-05-15 10:00:00 18.8 37 Norte 56 Norte 0 -- -- 61
2018-05-15 09:00:00 17.1 33 Norte 61 Norte 0 -- -- 65
2018-05-15 08:00:00 15.4 33 Norte 50 Norte 0 -- -- 70
2018-05-15 07:00:00 15.1 32 Norte 50 Norte 0 -- -- 68
2018-05-15 06:00:00 16.5 31 Norte 44 Nordeste 0 -- -- 52
2018-05-15 05:00:00 17.6 23 Norte 41 Norte 0 -- -- 30
2018-05-15 04:00:00 17.7 29 Norte 53 Norte 0 -- -- 33
2018-05-15 03:00:00 17.4 33 Norte 58 Norte 0 -- -- 34
2018-05-15 02:00:00 17.8 42 Norte 66 Norte 0 -- -- 33
2018-05-15 01:00:00 17.6 40 Norte 63 Norte 0 -- -- 36
2018-05-15 00:00:00 17.8 41 Norte 62 Norte 0 -- -- 37
2018-05-14 23:00:00 17.7 30 Norte 57 Norte 0 -- -- 38
2018-05-14 22:00:00 17.2 32 Norte 49 Norte 0 -- -- 41
2018-05-14 21:00:00 16.6 28 Norte 43 Norte 0 -- -- 62
2018-05-14 20:00:00 17.8 30 Norte 50 Norte 0 -- -- 62
2018-05-14 19:00:00 19.7 35 Norte 53 Norte 0 -- -- 58
2018-05-14 18:00:00 21.3 39 Norte 54 Nordeste 0 -- -- 53
2018-05-14 17:00:00 22.8 33 Norte 53 Norte 0 -- -- 49
2018-05-14 16:00:00 23.1 39 Norte 59 Norte 0 -- -- 48
2018-05-14 15:00:00 23.1 39 Norte 59 Norte 0 -- -- 48
2018-05-14 14:00:00 22.3 39 Norte 62 Nordeste 0 -- -- 48
2018-05-14 13:00:00 21.8 38 Norte 60 Norte 0 -- -- 49
2018-05-14 12:00:00 21.2 35 Norte 63 Norte 0 -- -- 50
2018-05-14 11:00:00 18.9 44 Norte 62 Norte 0 -- -- 56
2018-05-14 10:00:00 17.3 42 Norte 60 Nordeste 0 -- -- 59
2018-05-14 09:00:00 16 36 Norte 61 Norte 0 -- -- 63
2018-05-14 08:00:00 14.3 38 Norte 57 Norte 0 -- -- 70
2018-05-14 07:00:00 14.2 39 Norte 61 Norte 0 -- -- 67
2018-05-14 06:00:00 14.2 36 Norte 53 Norte 0 -- -- 70
2018-05-14 05:00:00 14.3 37 Norte 55 Norte 0 -- -- 67
2018-05-14 04:00:00 14.6 41 Norte 66 Norte 0 -- -- 63
2018-05-14 03:00:00 14.4 37 Norte 60 Norte 0 -- -- 68
2018-05-14 02:00:00 14.5 37 Norte 57 Norte 0 -- -- 68
2018-05-14 01:00:00 14.8 33 Norte 58 Norte 0 -- -- 67
2018-05-14 00:00:00 15 42 Norte 63 Norte 0 -- -- 69
2018-05-11 19:00:00 -- -- -- -- -- -- -- -- --
2018-05-11 18:00:00 19.9 45 Norte 65 Nordeste 0 -- -- 57
2018-05-11 17:00:00 21.2 40 Norte 62 Nordeste 0 -- -- 54
2018-05-11 16:00:00 21.8 37 Norte 62 Norte 0 -- -- 52
2018-05-11 15:00:00 21.9 37 Nordeste 59 Nordeste 0 -- -- 53
2018-05-11 14:00:00 20.8 38 Norte 62 Norte 0 -- -- 55
2018-05-11 13:00:00 20.8 37 Norte 61 Norte 0 -- -- 57
2018-05-11 12:00:00 19.3 44 Norte 67 Norte 0 -- -- 57
2018-05-11 11:00:00 17.7 39 Norte 68 Norte 0 -- -- 62
2018-05-11 10:00:00 16.7 37 Norte 58 Norte 0 -- -- 66
2018-05-11 09:00:00 15 37 Norte 62 Norte 0 -- -- 71
2018-05-11 08:00:00 14.6 43 Norte 64 Norte 0 -- -- 73
2018-05-11 07:00:00 14.3 38 Norte 54 Norte 0 -- -- 72
2018-05-11 06:00:00 14.4 34 Norte 51 Norte 0 -- -- 72
2018-05-11 05:00:00 14.4 25 Norte 42 Norte 0 -- -- 70
2018-05-11 04:00:00 14.4 29 Norte 46 Norte 0 -- -- 72
2018-05-11 03:00:00 14.8 30 Norte 44 Norte 0 -- -- 73
2018-05-11 02:00:00 15 28 Norte 41 Norte 0 -- -- 72
2018-05-11 01:00:00 15.4 22 Norte 36 Nordeste 0 -- -- 72
2018-05-11 00:00:00 15.7 25 Norte 42 Norte 0 -- -- 72
2018-05-10 23:00:00 15.8 28 Norte 44 Norte 0 -- -- 69
2018-05-10 22:00:00 16.2 27 Norte 45 Norte 0 -- -- 67
2018-05-10 21:00:00 16.4 29 Norte 47 Norte 0 -- -- 68
2018-05-10 20:00:00 17.5 31 Norte 52 Norte 0 -- -- 62
2018-05-10 19:00:00 18.8 38 Norte 61 Norte 0 -- -- 61
2018-05-10 18:00:00 19.7 44 Norte 63 Norte 0 -- -- 59
2018-05-10 17:00:00 20.6 45 Norte 64 Norte 0 -- -- 59
2018-05-10 16:00:00 20.7 38 Norte 62 Norte 0 -- -- 60
2018-05-10 15:00:00 21.4 40 Norte 60 Norte 0 -- -- 60
2018-05-10 14:00:00 21.7 37 Norte 58 Nordeste 0 -- -- 55
2018-05-10 13:00:00 22 36 Norte 62 Norte 0 -- -- 50
2018-05-10 12:00:00 20.5 36 Norte 58 Norte 0 -- -- 54
2018-05-10 11:00:00 19.2 34 Norte 55 Norte 0 -- -- 59
2018-05-10 10:00:00 17.2 30 Norte 54 Norte 0 -- -- 67
2018-05-10 09:00:00 16.9 37 Norte 59 Nordeste 0 -- -- 64
2018-05-10 08:00:00 16.4 35 Norte 62 Norte 0 -- -- 66
2018-05-10 07:00:00 15.5 33 Norte 51 Norte 0 -- -- 70
2018-05-10 06:00:00 15.3 31 Norte 53 Norte 0 -- -- 73
2018-05-10 05:00:00 15.9 33 Norte 63 Norte 0 -- -- 70
2018-05-10 04:00:00 15.5 33 Norte 56 Norte 0 -- -- 74
2018-05-10 03:00:00 16.1 33 Norte 58 Norte 0 -- -- 70
2018-05-10 02:00:00 16.1 33 Norte 53 Norte 0 -- -- 71
2018-05-10 01:00:00 16.2 42 Norte 61 Norte 0 -- -- 74
2018-05-10 00:00:00 16.8 38 Norte 62 Norte 0 -- -- 70
2018-05-09 23:00:00 16.1 36 Norte 54 Norte 0 -- -- 74
2018-05-09 22:00:00 16.6 32 Norte 52 Norte 0 -- -- 74
2018-05-09 21:00:00 16.8 31 Norte 54 Norte 0 -- -- 75
2018-05-09 20:00:00 17.9 24 Norte 48 Norte 0 -- -- 69
2018-05-09 19:00:00 19.1 32 Norte 62 Norte 0 -- -- 64
2018-05-09 18:00:00 20.7 36 Norte 59 Norte 0 -- -- 57
2018-05-09 17:00:00 21.8 36 Norte 57 Norte 0 -- -- 52
2018-05-09 16:00:00 22.7 36 Norte 57 Nordeste 0 -- -- 53
2018-05-09 15:00:00 22.6 36 Norte 57 Norte 0 -- -- 54
2018-05-09 14:00:00 22.6 37 Norte 57 Nordeste 0 -- -- 51
2018-05-09 13:00:00 21.5 41 Norte 58 Norte 0 -- -- 54
2018-05-09 12:00:00 20.8 37 Norte 55 Norte 0 -- -- 56
2018-05-09 11:00:00 20.5 31 Norte 48 Norte 0 -- -- 54
2018-05-09 10:00:00 19 29 Norte 45 Norte 0 -- -- 55
2018-05-09 09:00:00 17.5 4 Sur 34 Norte 0 -- -- 65
2018-05-09 08:00:00 15.6 15 Norte 35 Noroeste 0 -- -- 68
2018-05-09 07:00:00 14.9 21 Norte 30 Norte 0 -- -- 70
2018-05-09 06:00:00 15.6 13 Noroeste 45 Norte 0 -- -- 70
2018-05-09 05:00:00 15.9 29 Norte 51 Noroeste 0 -- -- 62
2018-05-09 04:00:00 15.7 22 Norte 42 Norte 0 -- -- 67
2018-05-09 03:00:00 15.7 24 Norte 44 Norte 0 -- -- 63
2018-05-09 02:00:00 15.9 27 Norte 48 Norte 0 -- -- 62
2018-05-09 01:00:00 16 25 Norte 43 Norte 0 -- -- 63
2018-05-09 00:00:00 16.1 28 Norte 47 Norte 0 -- -- 62
2018-05-08 23:00:00 16.9 23 Norte 53 Norte 0 -- -- 62
2018-05-08 22:00:00 17 29 Norte 45 Norte 0 -- -- 61
2018-05-08 21:00:00 17.2 28 Norte 51 Norte 0 -- -- 62
2018-05-08 20:00:00 18.1 29 Norte 52 Norte 0 -- -- 59
2018-05-08 19:00:00 19.5 30 Norte 53 Norte 0 -- -- 54
2018-05-08 18:00:00 20.3 30 Norte 48 Norte 0 -- -- 52
2018-05-08 17:00:00 21.6 31 Norte 52 Norte 0 -- -- 50
2018-05-08 16:00:00 22 35 Norte 57 Norte 0 -- -- 51
2018-05-08 15:00:00 21.3 39 Norte 58 Nordeste 0 -- -- 54
2018-05-08 14:00:00 21.7 35 Norte 53 Nordeste 0 -- -- 56
2018-05-08 13:00:00 21.7 33 Norte 51 Norte 0 -- -- 56
2018-05-08 12:00:00 18.7 25 Norte 40 Norte 0 -- -- 67
2018-05-08 11:00:00 18.3 20 Norte 38 Norte 0 -- -- 62
2018-05-08 10:00:00 17.1 23 Norte 40 Norte 0 -- -- 69
2018-05-08 09:00:00 16.4 18 Norte 39 Norte 0 -- -- 74
2018-05-08 08:00:00 15.8 23 Norte 35 Norte 0 -- -- 77
2018-05-08 07:00:00 16.1 19 Norte 32 Norte 0 -- -- 72
2018-05-08 06:00:00 16.6 15 Norte 31 Noroeste 0 -- -- 64
2018-05-08 05:00:00 16 19 Norte 31 Norte 0 -- -- 69
2018-05-08 04:00:00 16 19 Norte 35 Norte 0 -- -- 70
2018-05-08 03:00:00 15.9 24 Norte 38 Norte 0 -- -- 70
2018-05-08 02:00:00 16 6 Nordeste 20 Noroeste 0 -- -- 69
2018-05-08 01:00:00 16.1 11 Norte 28 Norte 0 -- -- 62
2018-05-08 00:00:00 16.5 18 Norte 27 Norte 0 -- -- 63
2018-05-07 23:00:00 15.9 17 Norte 34 Noroeste 0 -- -- 62
2018-05-07 22:00:00 15.4 8 Noroeste 21 Norte 0 -- -- 61
2018-05-07 21:00:00 16.5 8 Norte 32 Oeste 0 -- -- 63
2018-05-07 20:00:00 17.5 19 Norte 39 Norte 0 -- -- 57
2018-05-07 19:00:00 18.9 9 Sudoeste 31 Norte 0 -- -- 58
2018-05-07 18:00:00 19 12 Sudeste 27 Este 0 -- -- 58
2018-05-07 17:00:00 19.1 11 Oeste 37 Norte 0 -- -- 57
2018-05-07 16:00:00 19.4 6 Sudoeste 32 Nordeste 0 -- -- 57
2018-05-07 15:00:00 19.1 21 Norte 33 Norte 0 -- -- 49
2018-05-07 14:00:00 18.9 21 Norte 38 Nordeste 0 -- -- 56
2018-05-07 13:00:00 18.8 22 Norte 35 Norte 0 -- -- 64
2018-05-07 12:00:00 18.6 15 Sur 24 Sur 0 -- -- 66
2018-05-07 11:00:00 18.3 9 Sur 19 Sur 0 -- -- 62
2018-05-07 10:00:00 17.9 13 Sur 19 Sur 0 -- -- 64
2018-05-07 09:00:00 15.9 4 Sudoeste 21 Norte 0 -- -- 79
2018-05-07 08:00:00 14.2 14 Norte 21 Norte 0 -- -- 84
2018-05-07 07:00:00 14.3 4 Oeste 11 Oeste 0 -- -- 85
2018-05-07 06:00:00 14.4 0 Calma 9 Norte 0 -- -- 86
2018-05-07 05:00:00 14.5 4 Noroeste 7 Sudoeste 0 -- -- 85
2018-05-07 04:00:00 14.3 5 Noroeste 8 Noroeste 0 -- -- 86
2018-05-07 03:00:00 14.4 4 Norte 8 Sudoeste 0 -- -- 87
2018-05-07 02:00:00 14.3 5 Oeste 8 Oeste 0 -- -- 87
2018-05-07 01:00:00 14.5 5 Oeste 8 Oeste 0 -- -- 89
2018-05-07 00:00:00 14.6 5 Oeste 8 Oeste 0 -- -- 88
2018-05-06 23:00:00 14.7 4 Norte 4 Noroeste 0 -- -- 89
2018-05-06 22:00:00 14.6 2 Norte 7 Norte 0 -- -- 89
2018-05-06 21:00:00 14.6 0 Calma 8 Oeste 0.2 -- -- 88
2018-05-06 20:00:00 14.7 4 Oeste 6 Oeste 0.2 -- -- 86
2018-05-06 19:00:00 15 6 Norte 9 Norte 0.2 -- -- 84
2018-05-06 18:00:00 16.1 5 Nordeste 9 Nordeste 0 -- -- 79
2018-05-06 17:00:00 17.1 2 Nordeste 12 Sudeste 0 -- -- 70
2018-05-06 16:00:00 17.3 6 Sudeste 14 Nordeste 0 -- -- 68
2018-05-06 15:00:00 17.8 8 Nordeste 20 Nordeste 0 -- -- 67
2018-05-06 14:00:00 17.3 13 Nordeste 22 Norte 0 -- -- 67
2018-05-06 13:00:00 18.6 8 Norte 18 Nordeste 0 -- -- 63
2018-05-06 12:00:00 18.5 9 Nordeste 17 Nordeste 0 -- -- 61
2018-05-06 11:00:00 18.2 10 Nordeste 31 Nordeste 0 -- -- 64
2018-05-06 10:00:00 17.2 8 Sudeste 13 Sur 0 -- -- 57
2018-05-06 09:00:00 16.3 6 Sur 10 Oeste 0 -- -- 71
2018-05-06 08:00:00 14 7 Oeste 10 Oeste 0 -- -- 79
2018-05-06 07:00:00 13.8 5 Noroeste 10 Norte 0 -- -- 79
2018-05-06 06:00:00 13.9 0 Calma 5 Noroeste 0 -- -- 78
2018-05-06 05:00:00 13.5 4 Noroeste 6 Noroeste 0 -- -- 76
2018-05-06 04:00:00 13 4 Noroeste 10 Noroeste 0 -- -- 76
2018-05-06 03:00:00 13 8 Noroeste 10 Noroeste 0 -- -- 76
2018-05-06 02:00:00 13.8 0 Calma 6 Norte 0 -- -- 73
2018-05-06 01:00:00 14 5 Norte 9 Norte 0 -- -- 71
2018-05-06 00:00:00 15 0 Calma 4 Este 0 -- -- 67
2018-05-05 23:00:00 15.4 2 Nordeste 12 Este 0 -- -- 64
2018-05-05 22:00:00 16.1 3 Noroeste 16 Norte 0 -- -- 65
2018-05-05 21:00:00 16.7 10 Sur 14 Sur 0 -- -- 63
2018-05-05 20:00:00 17.2 3 Sudoeste 13 Sudoeste 0 -- -- 61
2018-05-05 19:00:00 17.6 5 Noroeste 23 Nordeste 0 -- -- 59
2018-05-05 18:00:00 18 16 Nordeste 31 Norte 0 -- -- 57
2018-05-05 17:00:00 18.4 21 Norte 34 Norte 0 -- -- 54
2018-05-05 16:00:00 18.7 20 Norte 36 Nordeste 0 -- -- 56
2018-05-05 15:00:00 18.8 24 Nordeste 37 Nordeste 0 -- -- 59
2018-05-05 14:00:00 18.9 20 Nordeste 32 Norte 0 -- -- 51
2018-05-05 13:00:00 18.1 17 Norte 40 Norte 0 -- -- 52
2018-05-05 12:00:00 18.6 26 Norte 39 Norte 0 -- -- 53
2018-05-05 11:00:00 18.1 19 Norte 32 Norte 0 -- -- 54
2018-05-05 10:00:00 17.1 21 Norte 38 Noroeste 0 -- -- 58
2018-05-05 09:00:00 15.4 17 Norte 37 Norte 0 -- -- 67
2018-05-05 08:00:00 14.6 25 Norte 38 Norte 0 -- -- 73
2018-05-05 07:00:00 15.2 22 Norte 37 Norte 0 -- -- 64
2018-05-05 06:00:00 15.1 21 Norte 37 Norte 0 -- -- 65
2018-05-05 05:00:00 15.3 24 Norte 35 Norte 0 -- -- 70
2018-05-05 04:00:00 15.2 20 Norte 37 Norte 0 -- -- 65
2018-05-05 03:00:00 15.1 17 Norte 39 Norte 0 -- -- 65
2018-05-05 02:00:00 15.1 18 Norte 35 Norte 0 -- -- 70
2018-05-05 01:00:00 16.3 19 Norte 30 Norte 0 -- -- 68
2018-05-05 00:00:00 16.1 24 Norte 41 Norte 0 -- -- 67
2018-05-04 23:00:00 15.7 21 Norte 34 Norte 0 -- -- 64
2018-05-04 22:00:00 16.1 18 Norte 38 Norte 0 -- -- 63
2018-05-04 21:00:00 16.8 22 Norte 36 Norte 0 -- -- 61
2018-05-04 20:00:00 17.1 27 Norte 41 Norte 0 -- -- 60
2018-05-04 19:00:00 18 31 Norte 49 Norte 0 -- -- 61
2018-05-04 18:00:00 18.7 29 Norte 51 Norte 0 -- -- 59
2018-05-04 17:00:00 20.6 32 Norte 53 Norte 0 -- -- 55
2018-05-04 16:00:00 21.6 35 Norte 57 Norte 0 -- -- 50
2018-05-04 15:00:00 22.1 35 Norte 54 Norte 0 -- -- 48
2018-05-04 14:00:00 22 35 Norte 56 Nordeste 0 -- -- 50
2018-05-04 13:00:00 21.5 35 Nordeste 53 Nordeste 0 -- -- 51
2018-05-04 12:00:00 21.5 26 Nordeste 49 Norte 0 -- -- 47
2018-05-04 11:00:00 19.6 23 Norte 41 Norte 0 -- -- 49
2018-05-04 10:00:00 17.7 28 Norte 41 Norte 0 -- -- 61
2018-05-04 09:00:00 16.2 23 Norte 33 Norte 0 -- -- 76
2018-05-04 08:00:00 15.1 15 Norte 27 Nordeste 0 -- -- 75
2018-05-04 07:00:00 15.9 8 Norte 28 Norte 0 -- -- 61
2018-05-04 06:00:00 15.2 19 Norte 29 Norte 0 -- -- 67
2018-05-04 05:00:00 15.5 12 Norte 32 Noroeste 0 -- -- 61
2018-05-04 04:00:00 15.3 21 Norte 35 Noroeste 0 -- -- 64
2018-05-04 03:00:00 15.4 19 Norte 37 Norte 0 -- -- 64
2018-05-04 02:00:00 15.5 23 Norte 34 Norte 0 -- -- 71
2018-05-04 01:00:00 15.6 21 Norte 33 Norte 0 -- -- 73
2018-05-04 00:00:00 16.2 15 Norte 28 Norte 0 -- -- 66
2018-05-03 23:00:00 16.3 21 Norte 42 Norte 0 -- -- 66
2018-05-03 22:00:00 16.3 22 Norte 39 Norte 0 -- -- 65
2018-05-03 21:00:00 16.6 22 Norte 39 Norte 0 -- -- 66
2018-05-03 20:00:00 17.4 24 Norte 42 Norte 0 -- -- 63
2018-05-03 19:00:00 18.7 26 Norte 39 Norte 0 -- -- 57
2018-05-03 18:00:00 19.3 13 Norte 47 Norte 0 -- -- 53
2018-05-03 17:00:00 19.4 28 Norte 45 Norte 0 -- -- 59
2018-05-03 16:00:00 18.7 35 Norte 50 Norte 0 -- -- 63
2018-05-03 15:00:00 20.2 28 Norte 45 Norte 0 -- -- 59
2018-05-03 14:00:00 21.5 29 Norte 49 Norte 0 -- -- 53
2018-05-03 13:00:00 22.5 30 Norte 45 Nordeste 0 -- -- 47
2018-05-03 12:00:00 22 24 Norte 45 Nordeste 0 -- -- 46
2018-05-03 11:00:00 19.5 23 Norte 39 Norte 0 -- -- 54
2018-05-03 10:00:00 19.1 14 Norte 27 Norte 0 -- -- 53
2018-05-03 09:00:00 17.4 12 Noroeste 33 Norte 0 -- -- 59
2018-05-03 08:00:00 16 17 Norte 28 Norte 0 -- -- 69
2018-05-03 07:00:00 15.2 14 Norte 26 Norte 0 -- -- 75
2018-05-03 06:00:00 14 0 Calma 26 Norte 0 -- -- 82
2018-05-03 05:00:00 15.5 15 Norte 25 Norte 0 -- -- 72
2018-05-03 04:00:00 14.6 5 Oeste 14 Norte 0 -- -- 85
2018-05-03 03:00:00 14.7 0 Calma 5 Norte 0 -- -- 87
2018-05-03 02:00:00 15 3 Oeste 11 Sur 0 -- -- 88
2018-05-03 01:00:00 15.4 6 Sur 12 Sur 0 -- -- 88
2018-05-03 00:00:00 15.5 9 Sur 14 Sur 0 -- -- 89
2018-05-02 23:00:00 15.8 4 Sudeste 10 Este 0 -- -- 85
2018-05-02 22:00:00 16 4 Sudeste 9 Sur 0 -- -- 80
2018-05-02 21:00:00 16.2 5 Sur 16 Sur 0 -- -- 80
2018-05-02 20:00:00 16.6 12 Sur 22 Sur 0 -- -- 78
2018-05-02 19:00:00 16.9 16 Sur 28 Sudoeste 0 -- -- 76
2018-05-02 18:00:00 17.4 19 Sur 34 Sudoeste 0 -- -- 73
2018-05-02 17:00:00 17.9 22 Sudoeste 35 Sudoeste 0 -- -- 70
2018-05-02 16:00:00 20.8 17 Sudoeste 33 Oeste 0 -- -- 58
2018-05-02 15:00:00 22.2 16 Norte 44 Norte 0 -- -- 49
2018-05-02 14:00:00 21.9 23 Nordeste 36 Nordeste 0 -- -- 54
2018-05-02 13:00:00 21 13 Sudoeste 45 Nordeste 0 -- -- 53
2018-05-02 12:00:00 22 19 Nordeste 40 Norte 0 -- -- 51
2018-05-02 11:00:00 20.9 22 Nordeste 39 Norte 0 -- -- 50
2018-05-02 10:00:00 18.6 27 Norte 41 Norte 0 -- -- 55
2018-05-02 09:00:00 16.9 18 Norte 41 Norte 0 -- -- 60
2018-05-02 08:00:00 14.9 18 Norte 44 Norte 0 -- -- 62
2018-05-02 07:00:00 12.6 6 Norte 10 Sudoeste 0 -- -- 71
2018-05-02 06:00:00 13.5 5 Sur 14 Sur 0 -- -- 67
2018-05-02 05:00:00 13.2 4 Noroeste 23 Norte 0 -- -- 68
2018-05-02 04:00:00 13.8 18 Nordeste 27 Norte 0 -- -- 60
2018-05-02 03:00:00 13.9 21 Norte 34 Norte 0 -- -- 59
2018-05-02 02:00:00 14 15 Norte 36 Nordeste 0 -- -- 54
2018-05-02 01:00:00 14.7 23 Norte 35 Norte 0 -- -- 53
2018-05-02 00:00:00 14.5 20 Norte 34 Norte 0 -- -- 59
2018-05-01 23:00:00 14.9 21 Norte 38 Norte 0 -- -- 61
2018-05-01 22:00:00 15.1 23 Norte 49 Nordeste 0 -- -- 65
2018-05-01 21:00:00 15.6 24 Norte 44 Norte 0 -- -- 58
2018-05-01 20:00:00 16.8 25 Norte 46 Norte 0 -- -- 55
2018-05-01 19:00:00 18.8 26 Norte 45 Norte 0 -- -- 47
2018-05-01 18:00:00 20.4 28 Norte 46 Norte 0 -- -- 41
2018-05-01 17:00:00 21.5 29 Norte 49 Norte 0 -- -- 41
2018-05-01 16:00:00 21.2 30 Norte 50 Norte 0 -- -- 43
2018-05-01 15:00:00 21.6 31 Norte 51 Norte 0 -- -- 40
2018-05-01 14:00:00 21.2 30 Norte 52 Norte 0 -- -- 41
2018-05-01 13:00:00 21 26 Norte 49 Nordeste 0 -- -- 43
2018-05-01 12:00:00 20.1 23 Norte 42 Norte 0 -- -- 47
2018-05-01 11:00:00 19 28 Norte 47 Norte 0 -- -- 49
2018-05-01 10:00:00 17.6 25 Norte 46 Noroeste 0 -- -- 51
2018-05-01 09:00:00 16.1 23 Norte 45 Norte 0 -- -- 55
2018-05-01 08:00:00 14.5 23 Norte 40 Norte 0 -- -- 59
2018-05-01 07:00:00 14 17 Norte 35 Norte 0 -- -- 61
2018-05-01 06:00:00 14 17 Norte 31 Norte 0 -- -- 60
2018-05-01 05:00:00 14 17 Norte 36 Norte 0 -- -- 64
2018-05-01 04:00:00 14.3 18 Norte 33 Norte 0 -- -- 63
2018-05-01 03:00:00 14.4 21 Norte 36 Norte 0 -- -- 70
2018-05-01 02:00:00 14.8 16 Norte 28 Norte 0 -- -- 67
2018-05-01 01:00:00 14.5 21 Norte 34 Norte 0 -- -- 63
2018-05-01 00:00:00 14.1 17 Norte 28 Noroeste 0 -- -- 61
2018-04-30 23:00:00 14.2 17 Norte 37 Norte 0 -- -- 60
2018-04-30 22:00:00 14.4 21 Norte 37 Norte 0 -- -- 61
2018-04-30 21:00:00 14.9 22 Norte 39 Norte 0 -- -- 58
2018-04-30 20:00:00 15.8 30 Norte 50 Norte 0 -- -- 51
2018-04-30 19:00:00 17.6 30 Norte 52 Norte 0 -- -- 44
2018-04-30 18:00:00 18.9 32 Norte 50 Noroeste 0 -- -- 41
2018-04-30 17:00:00 19.5 32 Norte 48 Norte 0 -- -- 40
2018-04-30 16:00:00 20.1 31 Norte 52 Norte 0 -- -- 40
2018-04-30 15:00:00 18.7 31 Norte 54 Norte 0 -- -- 42
2018-04-30 14:00:00 19.8 36 Norte 53 Norte 0 -- -- 42
2018-04-30 13:00:00 19.8 34 Norte 50 Norte 0 -- -- 43
2018-04-30 12:00:00 18.4 32 Norte 47 Norte 0 -- -- 47
2018-04-30 11:00:00 17.5 26 Norte 41 Norte 0 -- -- 48
2018-04-30 10:00:00 15.3 25 Norte 43 Norte 0 -- -- 57
2018-04-30 09:00:00 14.4 21 Norte 36 Norte 0 -- -- 61
2018-04-30 08:00:00 13.6 24 Norte 38 Norte 0 -- -- 62
2018-04-30 07:00:00 13.4 26 Norte 44 Norte 0 -- -- 62
2018-04-30 06:00:00 13.6 23 Norte 40 Norte 0 -- -- 61
2018-04-30 05:00:00 13.5 23 Norte 40 Norte 0 -- -- 65
2018-04-30 04:00:00 13.6 18 Norte 41 Norte 0 -- -- 61
2018-04-30 03:00:00 13.6 29 Norte 42 Norte 0 -- -- 63
2018-04-30 02:00:00 13.9 28 Norte 42 Norte 0 -- -- 66
2018-04-30 01:00:00 14.3 24 Norte 44 Norte 0 -- -- 60
2018-04-30 00:00:00 14 28 Norte 41 Norte 0 -- -- 64
2018-04-29 23:00:00 14.2 27 Norte 40 Norte 0 -- -- 67
2018-04-29 22:00:00 14.5 24 Norte 48 Norte 0 -- -- 65
2018-04-29 21:00:00 14.7 31 Norte 50 Norte 0 -- -- 59
2018-04-29 20:00:00 15.5 35 Norte 49 Norte 0 -- -- 59
2018-04-29 19:00:00 17.3 30 Norte 54 Norte 0 -- -- 56
2018-04-29 18:00:00 18.9 34 Norte 51 Nordeste 0 -- -- 52
2018-04-29 17:00:00 19.9 35 Norte 55 Norte 0 -- -- 48
2018-04-29 16:00:00 20.6 36 Norte 57 Nordeste 0 -- -- 46
2018-04-29 15:00:00 20.9 33 Norte 54 Norte 0 -- -- 46
2018-04-29 14:00:00 20.5 31 Norte 58 Norte 0 -- -- 43
2018-04-29 13:00:00 19.8 32 Nordeste 51 Nordeste 0 -- -- 45
2018-04-29 12:00:00 19.5 26 Nordeste 46 Nordeste 0 -- -- 49
2018-04-29 11:00:00 18.6 25 Nordeste 41 Nordeste 0 -- -- 51
2018-04-29 10:00:00 16.2 27 Norte 40 Norte 0 -- -- 59
2018-04-29 09:00:00 15.2 24 Norte 42 Norte 0 -- -- 60
2018-04-29 08:00:00 14.5 23 Norte 38 Norte 0 -- -- 64
2018-04-29 07:00:00 13.7 23 Norte 44 Norte 0 -- -- 70
2018-04-29 06:00:00 13.8 30 Norte 48 Norte 0 -- -- 73
2018-04-29 05:00:00 14.3 23 Norte 41 Norte 0 -- -- 76
2018-04-29 04:00:00 14.5 29 Norte 48 Norte 0 -- -- 78
2018-04-29 03:00:00 14.7 36 Norte 57 Norte 0 -- -- 77
2018-04-29 02:00:00 14.8 31 Norte 53 Norte 0 -- -- 78
2018-04-29 01:00:00 14.8 32 Norte 51 Norte 0 -- -- 83
2018-04-29 00:00:00 14.8 35 Norte 58 Nordeste 0 -- -- 86
2018-04-28 23:00:00 16.1 30 Norte 57 Norte 0 -- -- 74
2018-04-28 22:00:00 17 24 Noroeste 54 Norte 0 -- -- 58
2018-04-28 21:00:00 16.8 29 Norte 53 Noroeste 0 -- -- 59
2018-04-28 20:00:00 17.8 30 Norte 59 Norte 0 -- -- 55
2018-04-28 19:00:00 19.7 40 Norte 62 Norte 0 -- -- 49
2018-04-28 18:00:00 22.3 8 Sur 39 Norte 0 -- -- 46
2018-04-28 17:00:00 23.4 17 Sur 40 Norte 0 -- -- 49
2018-04-28 16:00:00 23.8 27 Norte 54 Norte 0 -- -- 40
2018-04-28 15:00:00 24.2 31 Norte 51 Nordeste 0 -- -- 42
2018-04-28 14:00:00 23.8 32 Norte 50 Nordeste 0 -- -- 44
2018-04-28 13:00:00 23.4 34 Norte 49 Norte 0 -- -- 43
2018-04-28 12:00:00 22.3 33 Norte 50 Norte 0 -- -- 39
2018-04-28 11:00:00 21.2 30 Norte 48 Norte 0 -- -- 43
2018-04-28 10:00:00 19.7 11 Sur 41 Norte 0 -- -- 54
2018-04-28 09:00:00 17.4 8 Sur 13 Sur 0 -- -- 66
2018-04-28 08:00:00 17.2 5 Oeste 32 Norte 0 -- -- 42
2018-04-28 07:00:00 19.4 23 Norte 38 Norte 0 -- -- 20
2018-04-28 06:00:00 19.1 22 Norte 36 Norte 0 -- -- 20
2018-04-28 05:00:00 19.2 23 Norte 42 Norte 0 -- -- 22
2018-04-28 04:00:00 19.4 22 Norte 48 Norte 0 -- -- 26
2018-04-28 03:00:00 19.4 29 Norte 47 Norte 0 -- -- 28
2018-04-28 02:00:00 19.9 24 Norte 39 Norte 0 -- -- 27
2018-04-28 01:00:00 19.9 23 Norte 35 Norte 0 -- -- 28
2018-04-28 00:00:00 18.3 6 Sudoeste 27 Norte 0 -- -- 63
2018-04-27 23:00:00 21 12 Norte 40 Norte 0 -- -- 25
2018-04-27 22:00:00 21.2 17 Norte 39 Noroeste 0 -- -- 25
2018-04-27 21:00:00 16.6 6 Sudoeste 13 Sur 0 -- -- 73
2018-04-27 20:00:00 17.8 5 Sur 19 Sur 0 -- -- 69
2018-04-27 19:00:00 19.3 13 Sur 30 Sur 0 -- -- 65
2018-04-27 18:00:00 22.3 19 Sur 36 Sudoeste 0 -- -- 55
2018-04-27 17:00:00 24.8 22 Sur 39 Norte 0 -- -- 47
2018-04-27 16:00:00 24.8 32 Norte 48 Norte 0 -- -- 47
2018-04-27 15:00:00 24.8 34 Norte 50 Nordeste 0 -- -- 46
2018-04-27 14:00:00 24.1 33 Nordeste 47 Nordeste 0 -- -- 49
2018-04-27 13:00:00 24 14 Nordeste 40 Sur 0 -- -- 49
2018-04-27 12:00:00 22.6 13 Sur 28 Sur 0 -- -- 58
2018-04-27 11:00:00 21.2 15 Sur 20 Sur 0 -- -- 61
2018-04-27 10:00:00 18.2 6 Sur 13 Sur 0 -- -- 72
2018-04-27 09:00:00 15.6 9 Sudoeste 12 Sudoeste 0 -- -- 84
2018-04-27 08:00:00 13.4 5 Oeste 8 Oeste 0 -- -- 92
2018-04-27 07:00:00 13.3 0 Calma 9 Sudoeste 0 -- -- 91
2018-04-27 06:00:00 13.3 0 Calma 6 Oeste 0 -- -- 91
2018-04-27 05:00:00 13.5 3 Sudoeste 4 Oeste 0 -- -- 90
2018-04-27 04:00:00 13.7 3 Oeste 5 Noroeste 0 -- -- 88
2018-04-27 03:00:00 14.1 0 Calma 4 Sudoeste 0 -- -- 86
2018-04-27 02:00:00 14.6 2 Oeste 5 Sudoeste 0 -- -- 86
2018-04-27 01:00:00 15 0 Calma 6 Sudoeste 0 -- -- 83
2018-04-27 00:00:00 15.4 5 Sudoeste 9 Sudoeste 0 -- -- 82
2018-04-26 23:00:00 15.9 3 Sur 8 Sur 0 -- -- 80
2018-04-26 22:00:00 16.5 2 Oeste 11 Sur 0 -- -- 78
2018-04-26 21:00:00 17.5 9 Sur 25 Sur 0 -- -- 73
2018-04-26 20:00:00 19.4 11 Sur 25 Sur 0 -- -- 63
2018-04-26 19:00:00 21.8 15 Sur 29 Sur 0 -- -- 56
2018-04-26 18:00:00 24 15 Sur 20 Sur 0 -- -- 52
2018-04-26 17:00:00 25 9 Norte 57 Norte 0 -- -- 48
2018-04-26 16:00:00 24.1 26 Norte 47 Norte 0 -- -- 51
2018-04-26 15:00:00 23.8 26 Norte 45 Norte 0 -- -- 50
2018-04-26 14:00:00 25.1 8 Oeste 47 Norte 0 -- -- 49
2018-04-26 13:00:00 23.2 31 Norte 45 Norte 0 -- -- 54
2018-04-26 12:00:00 23 8 Oeste 37 Norte 0 -- -- 52
2018-04-26 11:00:00 21.1 9 Sur 34 Norte 0 -- -- 58
2018-04-26 10:00:00 18.9 9 Norte 35 Norte 0 -- -- 65
2018-04-26 09:00:00 15.9 6 Norte 21 Nordeste 0 -- -- 80
2018-04-26 08:00:00 13.6 3 Oeste 6 Oeste 0 -- -- 89
2018-04-26 07:00:00 13.6 6 Oeste 9 Oeste 0 -- -- 89
2018-04-26 06:00:00 14.2 2 Oeste 5 Noroeste 0 -- -- 88
2018-04-26 05:00:00 13.8 2 Oeste 7 Sudoeste 0 -- -- 87
2018-04-26 04:00:00 14 0 Calma 8 Sur 0 -- -- 86
2018-04-26 03:00:00 14.5 5 Sur 9 Sudoeste 0 -- -- 84
2018-04-26 02:00:00 14.9 0 Calma 6 Sudoeste 0 -- -- 83
2018-04-26 01:00:00 15.3 3 Sur 11 Sur 0 -- -- 83
2018-04-26 00:00:00 15.6 8 Sur 13 Sur 0 -- -- 81
2018-04-25 23:00:00 16 4 Sur 14 Sur 0 -- -- 79
2018-04-25 22:00:00 16.4 7 Sur 14 Sur 0 -- -- 76
2018-04-25 21:00:00 17.1 8 Sur 18 Sur 0 -- -- 72
2018-04-25 20:00:00 18.9 10 Sur 28 Nordeste 0 -- -- 66
2018-04-25 19:00:00 21 13 Sudoeste 26 Sudoeste 0 -- -- 59
2018-04-25 18:00:00 22.3 16 Sur 26 Sur 0 -- -- 54
2018-04-25 17:00:00 24 18 Sur 36 Sur 0 -- -- 51
2018-04-25 16:00:00 26.9 20 Norte 40 Norte 0 -- -- 33
2018-04-25 15:00:00 26.6 23 Norte 54 Norte 0 -- -- 30
2018-04-25 14:00:00 26.2 24 Noroeste 45 Noroeste 0 -- -- 32
2018-04-25 13:00:00 25.4 24 Norte 48 Noroeste 0 -- -- 36
2018-04-25 12:00:00 24.9 28 Norte 49 Norte 0 -- -- 39
2018-04-25 11:00:00 23.3 30 Norte 47 Norte 0 -- -- 41
2018-04-25 10:00:00 21.3 24 Norte 46 Norte 0 -- -- 44
2018-04-25 09:00:00 16.3 3 Sudoeste 8 Oeste 0 -- -- 78
2018-04-25 08:00:00 13.8 4 Oeste 10 Oeste 0 -- -- 87
2018-04-25 07:00:00 13.7 3 Noroeste 10 Noroeste 0 -- -- 86
2018-04-25 06:00:00 13.9 6 Noroeste 11 Sur 0 -- -- 87
2018-04-25 05:00:00 14 5 Oeste 11 Oeste 0 -- -- 86
2018-04-25 04:00:00 14.3 4 Oeste 9 Noroeste 0 -- -- 85
2018-04-25 03:00:00 14.6 4 Oeste 15 Noroeste 0 -- -- 84
2018-04-25 02:00:00 14.7 4 Noroeste 9 Sudeste 0 -- -- 82
2018-04-25 01:00:00 14.9 3 Oeste 10 Sur 0 -- -- 83
2018-04-25 00:00:00 15.4 0 Calma 11 Sur 0 -- -- 82
2018-04-24 23:00:00 16 6 Sudoeste 37 Norte 0 -- -- 83
2018-04-24 22:00:00 16.7 20 Norte 43 Norte 0 -- -- 75
2018-04-24 21:00:00 17.1 6 Sur 23 Sudoeste 0 -- -- 78
2018-04-24 20:00:00 18.8 15 Noroeste 45 Norte 0 -- -- 58
2018-04-24 19:00:00 19.8 21 Norte 44 Norte 0 -- -- 54
2018-04-24 18:00:00 20.3 22 Norte 46 Norte 0 -- -- 57
2018-04-24 17:00:00 21.3 28 Norte 48 Norte 0 -- -- 59
2018-04-24 16:00:00 22.1 34 Norte 53 Nordeste 0 -- -- 57
2018-04-24 15:00:00 22.3 24 Norte 43 Norte 0 -- -- 55
2018-04-24 14:00:00 21.9 25 Norte 44 Norte 0 -- -- 51
2018-04-24 13:00:00 20.9 27 Norte 46 Norte 0 -- -- 57
2018-04-24 12:00:00 20.7 24 Norte 36 Norte 0 -- -- 58
2018-04-24 11:00:00 18.7 21 Norte 39 Norte 0 -- -- 65
2018-04-24 10:00:00 18.8 17 Norte 37 Norte 0 -- -- 63
2018-04-24 09:00:00 17 17 Norte 37 Noroeste 0 -- -- 69
2018-04-24 08:00:00 15.8 19 Norte 34 Noroeste 0 -- -- 77
2018-04-24 07:00:00 15.5 18 Noroeste 34 Norte 0 -- -- 75
2018-04-24 06:00:00 15.8 14 Norte 29 Noroeste 0 -- -- 68
2018-04-24 05:00:00 16 16 Norte 36 Norte 0 -- -- 67
2018-04-24 04:00:00 16.2 13 Noroeste 26 Norte 0 -- -- 66
2018-04-24 03:00:00 16.3 5 Noroeste 31 Norte 0 -- -- 70
2018-04-24 02:00:00 16.1 13 Noroeste 39 Oeste 0 -- -- 67
2018-04-24 01:00:00 16.3 11 Noroeste 27 Norte 0 -- -- 69
2018-04-24 00:00:00 16.4 9 Noroeste 26 Noroeste 0 -- -- 69